Nearby METAR Reports

 

KDFW - Dallas/Ft Worth, Texas, USA
Distance from station: NE 8mi, 14km
Updated: 05/22/2018 17:53pm
Partly cloudy
Partly cloudy
 Wind from SE
Wind: SE 10 mph , 17 km/h
Temperature: 88°F , 31°C
Heat Index: 90°F , 32°C
Dew Point: 64°F , 18°C
Humidity: 46%
Barometer: 29.91 inHg , 1012.9 hPa
Clouds: Partly cloudy
Visibility: 10 miles , 16 km
Cloud details: Few Clouds 5000 ft
Partly cloudy 30000 ft
2018/05/22 22:53 KDFW 222253Z 14009KT 10SM FEW050 SCT300 31/18 A2991 RMK AO2 SLP120 TCU DSNT NE-SE T03060183
KFTW - Fort Worth, Texas, USA
Distance from station: W 13mi, 21km
Updated: 12/31/1969 18:00pm
NOT Current
unable to load KFTW data RC=404 Not Found
unable to load KFTW data RC=404 Not Found
 
 
KAFW - Ft Worth/Allianc, Texas, USA
Distance from station: NW 14mi, 22km
Updated: 05/22/2018 17:53pm
Partly cloudy
Partly cloudy
 Wind from S
Wind: S 9 mph , 15 km/h
Temperature: 88°F , 31°C
Heat Index: 91°F , 33°C
Dew Point: 66°F , 19°C
Humidity: 49%
Barometer: 29.92 inHg , 1013.2 hPa
Clouds: Partly cloudy
Visibility: 10 miles , 16 km
Cloud details: Partly cloudy 4900 ft
Partly cloudy 30000 ft
2018/05/22 22:53 KAFW 222253Z 19008KT 10SM SCT049 SCT300 31/19 A2992 RMK AO2 SLP119 CB DSNT NE MOV N TCU DSNT E T03060189 $
KDAL - Dallas/Love Fld, Texas, USA
Distance from station: E 17mi, 27km
Updated: 05/22/2018 17:53pm
Partly cloudy
Partly cloudy
 Wind from S
Wind: S 14 mph , 22 km/h
Temperature: 90°F , 32°C
Heat Index: 92°F , 33°C
Dew Point: 64°F , 18°C
Humidity: 43%
Barometer: 29.92 inHg , 1013.2 hPa
Clouds: Partly cloudy
Visibility: 10 miles , 16 km
Cloud details: Few Clouds 5000 ft
Few Clouds 8000 ft
Partly cloudy 25000 ft
Partly cloudy 30000 ft
2018/05/22 22:53 KDAL 222253Z 18012KT 10SM FEW050TCU FEW080 SCT250 SCT300 32/18 A2992 RMK AO2 SLP124 TCU N-NE AND DSNT E-SE-S T03220183
 
KNFW - Fort Worth Nas, Texas, USA
Distance from station: WSW 17mi, 28km
Updated: 12/31/1969 18:00pm
NOT Current
unable to load KNFW data RC=404 Not Found
unable to load KNFW data RC=404 Not Found
 
KRBD - Dallas/Redbird, Texas, USA
Distance from station: ESE 19mi, 30km
Updated: 05/22/2018 17:53pm
Few Clouds
Few Clouds
 Wind from SSE
Wind: SSE 12 mph , 19 km/h
Temperature: 88°F , 31°C
Heat Index: 90°F , 32°C
Dew Point: 64°F , 18°C
Humidity: 46%
Barometer: 29.92 inHg , 1013.2 hPa
Clouds: Few Clouds
Visibility: 10 miles , 16 km
Cloud details: Few Clouds 5000 ft
2018/05/22 22:53 KRBD 222253Z 15010KT 10SM FEW050 31/18 A2992 RMK AO2 SLP124 T03110183
 
KFWS - Fort Worth/Spinks, Texas, USA
Distance from station: SSW 21mi, 33km
Updated: 05/22/2018 17:55pm
Partly cloudy
Partly cloudy
 Wind from SE
Wind: SE 7 mph , 11 km/h
Temperature: 88°F , 31°C
Heat Index: 91°F , 33°C
Dew Point: 66°F , 19°C
Humidity: 49%
Barometer: 29.94 inHg , 1013.9 hPa
Clouds: Partly cloudy
Visibility: 10 miles , 16 km
Cloud details: Partly cloudy 5500 ft
2018/05/22 22:55 KFWS 222255Z 14006KT 10SM SCT055 31/19 A2994
KADS - Dallas/Addison, Texas, USA
Distance from station: ENE 21mi, 34km
Updated: 05/22/2018 17:47pm
Partly cloudy
Partly cloudy
 Wind from SSE
Wind: SSE 7 mph , 11 km/h, Gust: 16 mph , 26 km/h
Temperature: 88°F , 31°C
Heat Index: 90°F , 32°C
Dew Point: 64°F , 18°C
Humidity: 46%
Barometer: 29.93 inHg , 1013.5 hPa
Clouds: Partly cloudy
Visibility: 10 miles , 16 km
Cloud details: Partly cloudy 6000 ft
2018/05/22 22:47 KADS 222247Z 16006G14KT 10SM SCT060 31/18 A2993
 
KDTO - Denton, Texas, USA
Distance from station: N 26mi, 41km
Updated: 05/22/2018 17:53pm
Few Clouds
Few Clouds
 Wind from S
Wind: S 7 mph , 11 km/h
Temperature: 88°F , 31°C
Heat Index: 91°F , 33°C
Dew Point: 66°F , 19°C
Humidity: 49%
Barometer: 29.92 inHg , 1013.2 hPa
Clouds: Few Clouds
Visibility: 10 miles , 16 km
Cloud details: Few Clouds 5000 ft
2018/05/22 22:53 KDTO 222253Z 18006KT 10SM FEW050 31/19 A2992 RMK AO2 SLP124 T03060189 $
KLUD - Decatur, Texas, USA
Distance from station: NW 39mi, 62km
Updated: 05/22/2018 17:55pm
Clear
Clear
 Wind from calm
Wind: Calm
Temperature: 86°F , 30°C
Heat Index: 88°F , 31°C
Dew Point: 64°F , 18°C
Humidity: 49%
Barometer: 29.94 inHg , 1013.9 hPa
Clouds: Clear
Visibility: 10 miles , 16 km
2018/05/22 22:55 KLUD 222255Z AUTO 00000KT 10SM CLR 30/18 A2994 RMK AO2 T02960179
 
KSPS - Wichita Falls/Sheppard AFB, Texas, USA
Distance from station: NW 111mi, 179km
Updated: 05/22/2018 17:52pm
Clear
Clear
 Wind from SE
Wind: SE 15 mph , 24 km/h
Temperature: 86°F , 30°C
Heat Index: 88°F , 31°C
Dew Point: 64°F , 18°C
Humidity: 49%
Barometer: 29.91 inHg , 1012.9 hPa
Clouds: Clear
Visibility: 10 miles , 16 km
2018/05/22 22:52 KSPS 222252Z 13013KT 10SM CLR 30/18 A2991 RMK AO2 SLP117 T03000183